createdAt,value
2023-02-13T00:00:53.387Z,81.34
2023-02-13T00:01:53.388Z,81.25
2023-02-13T00:02:53.362Z,81.44
2023-02-13T00:03:53.167Z,81.06
2023-02-13T00:04:53.058Z,81.25
2023-02-13T00:05:53.360Z,81.25
2023-02-13T00:06:53.025Z,80.96
2023-02-13T00:07:53.264Z,81.82
2023-02-13T00:08:53.245Z,81.82
2023-02-13T00:09:53.233Z,81.82
2023-02-13T00:10:52.957Z,81.82
2023-02-13T00:11:52.938Z,82.29
2023-02-13T00:12:53.167Z,82.2
2023-02-13T00:13:52.903Z,82.2
2023-02-13T00:14:53.199Z,82.29
2023-02-13T00:15:53.219Z,82.48
2023-02-13T00:16:53.114Z,82.39
2023-02-13T00:17:53.086Z,82.29
2023-02-13T00:18:52.826Z,82.2
2023-02-13T00:19:53.061Z,82.1
2023-02-13T00:20:53.050Z,82.2
2023-02-13T00:21:53.125Z,81.82
2023-02-13T00:22:53.000Z,81.92
2023-02-13T00:23:52.986Z,81.34
2023-02-13T00:24:52.979Z,81.44
2023-02-13T00:25:52.943Z,81.25
2023-02-13T00:26:52.929Z,81.25
2023-02-13T00:27:52.909Z,81.34
2023-02-13T00:28:52.899Z,81.25
2023-02-13T00:29:52.614Z,81.34
2023-02-13T00:30:52.892Z,81.44
2023-02-13T00:31:53.263Z,81.25
2023-02-13T00:32:52.583Z,81.44
2023-02-13T00:33:52.804Z,81.44
2023-02-13T00:34:52.787Z,81.34
2023-02-13T00:35:52.765Z,81.44
2023-02-13T00:36:52.753Z,81.44
2023-02-13T00:37:52.791Z,81.25
2023-02-13T00:38:52.737Z,81.53
2023-02-13T00:39:52.686Z,81.06
2023-02-13T00:40:52.424Z,80.77
2023-02-13T00:41:52.659Z,81.44
2023-02-13T00:42:52.379Z,81.06
2023-02-13T00:43:52.401Z,81.25
2023-02-13T00:44:52.606Z,80.87
2023-02-13T00:45:52.331Z,81.34
2023-02-13T00:46:52.883Z,81.15
2023-02-13T00:47:52.296Z,80.93
2023-02-13T00:48:52.535Z,80.68
2023-02-13T00:49:52.528Z,80.49
2023-02-13T00:50:52.492Z,81.15
2023-02-13T00:51:52.489Z,80.4
2023-02-13T00:52:52.459Z,80.96
2023-02-13T00:53:52.497Z,80.58
2023-02-13T00:54:52.187Z,80.4
2023-02-13T00:55:52.175Z,80.87
2023-02-13T00:56:52.390Z,80.68
2023-02-13T00:57:52.362Z,80.87
2023-02-13T00:58:52.357Z,80.77
2023-02-13T00:59:53.553Z,81.06
2023-02-13T01:00:52.319Z,81.15
2023-02-13T01:01:52.171Z,81.34
2023-02-13T01:02:52.300Z,80.87
2023-02-13T01:03:52.105Z,81.25
2023-02-13T01:04:52.301Z,81.15
2023-02-13T01:05:52.243Z,81.06
2023-02-13T01:06:52.218Z,81.06
2023-02-13T01:07:52.196Z,81.06
2023-02-13T01:08:51.917Z,81.15
2023-02-13T01:09:52.213Z,81.34
2023-02-13T01:10:51.886Z,81.34
2023-02-13T01:11:51.868Z,81.34
2023-02-13T01:12:52.104Z,81.25
2023-02-13T01:13:52.087Z,81.25
2023-02-13T01:14:52.224Z,81.34
2023-02-13T01:15:52.150Z,81.44
2023-02-13T01:16:52.033Z,81.34
2023-02-13T01:17:51.760Z,81.21
2023-02-13T01:18:51.997Z,81.4
2023-02-13T01:19:52.012Z,81.72
2023-02-13T01:20:51.965Z,81.72
2023-02-13T01:21:51.950Z,81.72
2023-02-13T01:22:51.924Z,81.82
2023-02-13T01:23:51.905Z,80.87
2023-02-13T01:24:51.888Z,81.25
2023-02-13T01:25:51.927Z,81.34
2023-02-13T01:26:51.853Z,81.3
2023-02-13T01:27:51.842Z,81.3
2023-02-13T01:28:51.828Z,80.96
2023-02-13T01:29:51.811Z,81.06
2023-02-13T01:30:51.616Z,80.77
2023-02-13T01:31:52.213Z,81.02
2023-02-13T01:32:51.756Z,80.87
2023-02-13T01:33:51.742Z,80.87
2023-02-13T01:34:51.469Z,81.02
2023-02-13T01:35:51.706Z,80.83
2023-02-13T01:36:51.436Z,80.93
2023-02-13T01:37:51.659Z,80.93
2023-02-13T01:38:51.636Z,81.02
2023-02-13T01:39:51.365Z,81.3
2023-02-13T01:40:51.614Z,81.21
2023-02-13T01:41:51.694Z,81.21
2023-02-13T01:42:51.585Z,81.21
2023-02-13T01:43:51.560Z,81.4
2023-02-13T01:44:51.527Z,81.3
2023-02-13T01:45:51.510Z,81.21
2023-02-13T01:46:51.611Z,81.4
2023-02-13T01:47:51.480Z,82.06
2023-02-13T01:48:51.463Z,81.87
2023-02-13T01:49:51.441Z,81.3
2023-02-13T01:50:51.414Z,81.4
2023-02-13T01:51:51.414Z,81.4
2023-02-13T01:52:51.393Z,81.21
2023-02-13T01:53:51.361Z,81.3
2023-02-13T01:54:51.497Z,81.4
2023-02-13T01:55:51.077Z,81.49
2023-02-13T01:56:51.310Z,81.21
2023-02-13T01:57:51.357Z,81.4
2023-02-13T01:58:51.285Z,81.3
2023-02-13T01:59:51.265Z,81.4
2023-02-13T02:00:51.303Z,81.49
2023-02-13T02:01:51.851Z,81.3
2023-02-13T02:02:51.744Z,81.87
2023-02-13T02:03:51.247Z,81.77
2023-02-13T02:04:51.228Z,81.87
2023-02-13T02:05:51.463Z,81.12
2023-02-13T02:06:51.443Z,81.4
2023-02-13T02:07:51.177Z,81.4
2023-02-13T02:08:51.413Z,81.3
2023-02-13T02:09:51.424Z,81.3
2023-02-13T02:10:51.123Z,81.12
2023-02-13T02:11:51.109Z,80.93
2023-02-13T02:12:51.342Z,80.93
2023-02-13T02:13:51.388Z,81.21
2023-02-13T02:14:51.094Z,80.64
2023-02-13T02:15:51.448Z,80.64
2023-02-13T02:16:51.040Z,81.02
2023-02-13T02:17:51.264Z,81.25
2023-02-13T02:18:51.250Z,80.96
2023-02-13T02:19:51.214Z,81.21
2023-02-13T02:20:51.199Z,81.12
2023-02-13T02:21:51.177Z,81.4
2023-02-13T02:22:51.160Z,81.21
2023-02-13T02:23:50.895Z,81.12
2023-02-13T02:24:51.130Z,81.4
2023-02-13T02:25:51.193Z,81.4
2023-02-13T02:26:51.091Z,81.12
2023-02-13T02:27:51.074Z,80.93
2023-02-13T02:28:50.804Z,81.02
2023-02-13T02:29:51.092Z,81.87
2023-02-13T02:30:50.882Z,81.21
2023-02-13T02:31:50.953Z,81.21
2023-02-13T02:32:50.729Z,81.12
2023-02-13T02:33:50.716Z,81.12
2023-02-13T02:34:50.693Z,81.12
2023-02-13T02:35:50.952Z,81.49
2023-02-13T02:36:50.917Z,80.83
2023-02-13T02:37:50.887Z,81.4
2023-02-13T02:38:50.882Z,81.02
2023-02-13T02:39:50.855Z,81.77
2023-02-13T02:40:50.841Z,81.59
2023-02-13T02:41:50.563Z,81.59
2023-02-13T02:42:50.552Z,82.15
2023-02-13T02:43:50.542Z,82.06
2023-02-13T02:44:50.774Z,82.06
2023-02-13T02:45:50.804Z,82.15
2023-02-13T02:46:50.820Z,82.34
2023-02-13T02:47:50.463Z,82.44
2023-02-13T02:48:50.702Z,82.44
2023-02-13T02:49:50.421Z,82.34
2023-02-13T02:50:50.661Z,82.25
2023-02-13T02:51:50.633Z,82.34
2023-02-13T02:52:50.639Z,82.25
2023-02-13T02:53:50.366Z,82.72
2023-02-13T02:54:50.577Z,82.63
2023-02-13T02:55:50.569Z,82.06
2023-02-13T02:56:50.549Z,82.53
2023-02-13T02:57:50.546Z,82.91
2023-02-13T02:58:50.540Z,82.72
2023-02-13T02:59:50.500Z,82.53
2023-02-13T03:00:50.579Z,82.72
2023-02-13T03:01:50.511Z,82.72
2023-02-13T03:02:50.438Z,82.53
2023-02-13T03:03:50.590Z,82.53
2023-02-13T03:04:50.393Z,82.44
2023-02-13T03:05:50.120Z,82.63
2023-02-13T03:06:50.579Z,82.72
2023-02-13T03:07:50.094Z,82.44
2023-02-13T03:08:50.320Z,82.44
2023-02-13T03:09:50.060Z,82.72
2023-02-13T03:10:50.294Z,82.91
2023-02-13T03:11:50.274Z,82.91
2023-02-13T03:12:50.261Z,83.29
2023-02-13T03:13:49.984Z,83.01
2023-02-13T03:14:50.224Z,83.1
2023-02-13T03:15:50.202Z,83.48
2023-02-13T03:16:50.202Z,83.76
2023-02-13T03:17:50.227Z,83.58
2023-02-13T03:18:49.885Z,84.33
2023-02-13T03:19:49.879Z,84.42
2023-02-13T03:20:50.110Z,84.71
2023-02-13T03:21:49.838Z,85.09
2023-02-13T03:22:50.068Z,84.81
2023-02-13T03:23:49.815Z,84.81
2023-02-13T03:24:50.037Z,84.42
2023-02-13T03:25:50.023Z,84.23
2023-02-13T03:26:50.004Z,83.95
2023-02-13T03:27:49.725Z,83.67
2023-02-13T03:28:49.965Z,83.58
2023-02-13T03:29:49.687Z,83.01
2023-02-13T03:30:50.001Z,82.82
2023-02-13T03:31:50.078Z,83.1
2023-02-13T03:32:49.883Z,82.82
2023-02-13T03:49:59.872Z,82.44
2023-02-13T03:51:00.172Z,82.44
2023-02-13T03:51:59.773Z,82.53
2023-02-13T03:52:59.761Z,82.15
2023-02-13T03:53:59.744Z,82.25
2023-02-13T03:54:59.456Z,82.34
2023-02-13T03:55:59.704Z,82.25
2023-02-13T03:56:59.676Z,81.59
2023-02-13T03:57:59.658Z,81.68
2023-02-13T03:58:59.642Z,81.77
2023-02-13T04:00:00.123Z,81.96
2023-02-13T04:01:00.827Z,81.49
2023-02-13T04:02:00.205Z,81.49
2023-02-13T04:03:00.302Z,81.49
2023-02-13T04:04:00.281Z,81.96
2023-02-13T04:05:00.024Z,81.96
2023-02-13T04:06:00.291Z,81.87
2023-02-13T04:07:00.245Z,82.06
2023-02-13T04:07:59.944Z,81.83
2023-02-13T04:08:59.929Z,82.06
2023-02-13T04:09:59.908Z,81.59
2023-02-13T04:11:00.587Z,81.59
2023-02-13T04:11:59.874Z,81.49
2023-02-13T04:13:00.106Z,81.77
2023-02-13T04:14:00.114Z,81.87
2023-02-13T04:15:00.082Z,81.77
2023-02-13T04:15:59.793Z,81.96
2023-02-13T04:17:00.176Z,81.4
2023-02-13T04:17:59.772Z,81.49
2023-02-13T04:19:00.021Z,81.3
2023-02-13T04:19:59.723Z,81.3
2023-02-13T04:21:00.460Z,81.3
2023-02-13T04:22:00.007Z,81.4
2023-02-13T04:22:59.926Z,81.21
2023-02-13T04:23:59.896Z,81.59
2023-02-13T04:24:59.893Z,81.12
2023-02-13T04:25:59.863Z,81.02
2023-02-13T04:26:59.862Z,81.21
2023-02-13T04:27:59.618Z,81.4
2023-02-13T04:28:59.555Z,80.83
2023-02-13T04:29:59.791Z,81.02
2023-02-13T04:31:00.479Z,81.4
2023-02-13T04:31:59.574Z,81.02
2023-02-13T04:33:00.784Z,81.21
2023-02-13T04:34:00.508Z,81.12
2023-02-13T04:35:00.740Z,81.21
2023-02-13T04:36:00.724Z,81.02
2023-02-13T04:37:00.704Z,81.21
2023-02-13T04:38:00.788Z,81.4
2023-02-13T04:39:00.668Z,81.3
2023-02-13T04:40:00.774Z,81.21
2023-02-13T04:41:01.152Z,81.12
2023-02-13T04:42:00.640Z,81.12
2023-02-13T04:43:00.633Z,81.21
2023-02-13T04:44:00.596Z,81.21
2023-02-13T04:45:00.308Z,81.3
2023-02-13T04:46:00.659Z,81.12
2023-02-13T04:47:00.282Z,81.21
2023-02-13T04:48:00.248Z,80.83
2023-02-13T04:49:00.238Z,81.77
2023-02-13T04:50:00.209Z,81.3
2023-02-13T04:51:00.953Z,81.21
2023-02-13T04:52:00.429Z,81.4
2023-02-13T04:53:00.419Z,81.3
2023-02-13T04:54:00.459Z,81.96
2023-02-13T04:55:00.372Z,81.77
2023-02-13T04:56:00.135Z,81.77
2023-02-13T04:57:00.335Z,81.68
2023-02-13T04:58:00.351Z,81.96
2023-02-13T04:59:00.306Z,81.87
2023-02-13T05:00:00.292Z,81.4
2023-02-13T05:01:00.873Z,81.77
2023-02-13T05:02:00.243Z,81.87
2023-02-13T05:03:00.225Z,81.77
2023-02-13T05:04:00.221Z,81.77
2023-02-13T05:05:00.188Z,81.4
2023-02-13T05:06:00.179Z,81.4
2023-02-13T05:07:00.152Z,81.12
2023-02-13T05:08:00.148Z,81.3
2023-02-13T05:09:00.122Z,81.21
2023-02-13T05:10:00.182Z,81.3
2023-02-13T05:11:00.576Z,81.21
2023-02-13T05:11:59.807Z,81.12
2023-02-13T05:13:00.063Z,81.4
2023-02-13T05:13:59.784Z,81.77
2023-02-13T05:15:00.464Z,81.49
2023-02-13T05:16:00.555Z,81.87
2023-02-13T05:17:00.450Z,81.77
2023-02-13T05:18:00.431Z,82.06
2023-02-13T05:19:00.412Z,82.06
2023-02-13T05:20:00.400Z,82.06
2023-02-13T05:21:00.767Z,82.15
2023-02-13T05:22:00.350Z,82.06
2023-02-13T05:23:00.319Z,82.06
2023-02-13T05:24:00.065Z,82.44
2023-02-13T05:25:00.291Z,81.59
2023-02-13T05:26:00.319Z,81.59
2023-02-13T05:27:00.240Z,81.59
2023-02-13T05:28:00.370Z,81.59
2023-02-13T05:29:00.211Z,81.87
2023-02-13T05:30:00.190Z,81.77
2023-02-13T05:31:01.067Z,81.77
2023-02-13T05:32:00.576Z,81.77
2023-02-13T05:33:00.140Z,81.68
2023-02-13T05:34:00.129Z,81.77
2023-02-13T05:34:59.868Z,81.87
2023-02-13T05:36:00.093Z,81.21
2023-02-13T05:37:00.077Z,81.87
2023-02-13T05:38:00.049Z,81.77
2023-02-13T05:39:00.050Z,81.68
2023-02-13T05:39:59.753Z,81.59
2023-02-13T05:41:00.505Z,81.59
2023-02-13T05:42:00.057Z,81.59
2023-02-13T05:42:59.965Z,81.96
2023-02-13T05:43:59.944Z,81.59
2023-02-13T05:44:59.922Z,82.25
2023-02-13T05:46:00.758Z,82.06
2023-02-13T05:47:00.696Z,82.15
2023-02-13T05:48:00.397Z,82.25
2023-02-13T05:49:00.383Z,82.25
2023-02-13T05:50:00.360Z,82.15
2023-02-13T05:51:01.089Z,81.96
2023-02-13T05:52:00.585Z,82.25
2023-02-13T05:53:00.318Z,82.25
2023-02-13T05:54:00.566Z,82.25
2023-02-13T05:55:00.547Z,82.34
2023-02-13T05:56:00.513Z,82.25
2023-02-13T05:57:00.492Z,82.15
2023-02-13T05:58:00.603Z,82.34
2023-02-13T05:59:00.229Z,82.63
2023-02-13T06:00:00.434Z,82.53
2023-02-13T06:01:00.994Z,82.53
2023-02-13T06:02:00.395Z,82.82
2023-02-13T06:03:00.311Z,83.01
2023-02-13T06:04:03.933Z,83.2
2023-02-13T06:05:00.247Z,83.2
2023-02-13T06:06:00.324Z,83.2
2023-02-13T06:07:00.063Z,83.01
2023-02-13T06:08:00.289Z,82.91
2023-02-13T06:09:00.279Z,82.91
2023-02-13T06:10:00.242Z,82.53
2023-02-13T06:11:00.844Z,82.53
2023-02-13T06:12:00.208Z,82.44
2023-02-13T06:12:59.946Z,81.96
2023-02-13T06:14:00.226Z,82.25
2023-02-13T06:15:00.166Z,82.25
2023-02-13T06:16:00.304Z,82.72
2023-02-13T06:17:00.131Z,82.63
2023-02-13T06:17:59.858Z,83.1
2023-02-13T06:19:00.092Z,82.72
2023-02-13T06:20:00.089Z,83.1
2023-02-13T06:21:00.349Z,83.01
2023-02-13T06:21:59.775Z,83.29
2023-02-13T06:22:59.753Z,83.1
2023-02-13T06:24:00.000Z,83.01
2023-02-13T06:24:59.977Z,83.2
2023-02-13T06:25:59.974Z,82.91
2023-02-13T06:26:59.687Z,82.63
2023-02-13T06:28:00.014Z,82.53
2023-02-13T06:28:59.903Z,82.34
2023-02-13T06:29:59.944Z,82.34
2023-02-13T06:31:00.695Z,82.34
2023-02-13T06:31:59.786Z,82.34
2023-02-13T06:32:59.830Z,82.44
2023-02-13T06:33:59.829Z,82.25
2023-02-13T06:34:59.783Z,82.44
2023-02-13T06:35:59.518Z,82.15
2023-02-13T06:36:59.756Z,82.15
2023-02-13T06:37:59.756Z,82.44
2023-02-13T06:38:59.719Z,82.06
2023-02-13T06:39:59.459Z,82.15
2023-02-13T06:41:00.308Z,82.25
2023-02-13T06:41:59.411Z,82.34
2023-02-13T06:42:59.392Z,82.25
2023-02-13T06:43:59.388Z,82.44
2023-02-13T06:44:59.371Z,81.96
2023-02-13T06:45:59.758Z,81.68
2023-02-13T06:46:59.727Z,82.15
2023-02-13T06:47:59.306Z,81.68
2023-02-13T06:48:59.536Z,81.77
2023-02-13T06:49:59.517Z,81.59
2023-02-13T06:51:00.011Z,81.87
2023-02-13T06:51:59.505Z,81.96
2023-02-13T06:52:59.501Z,81.96
2023-02-13T06:53:59.189Z,82.15
2023-02-13T06:54:59.446Z,81.59
2023-02-13T06:55:59.157Z,81.96
2023-02-13T06:56:59.390Z,81.59
2023-02-13T06:57:59.133Z,82.06
2023-02-13T06:58:59.366Z,81.59
2023-02-13T06:59:59.335Z,81.68
2023-02-13T07:01:00.180Z,81.77
2023-02-13T07:01:59.394Z,81.12
2023-02-13T07:02:59.364Z,81.21
2023-02-13T07:03:59.276Z,81.21
2023-02-13T07:04:59.258Z,81.21
2023-02-13T07:05:58.980Z,81.12
2023-02-13T07:06:58.956Z,80.93
2023-02-13T07:07:59.193Z,80.83
2023-02-13T07:08:59.169Z,80.74
2023-02-13T07:09:58.906Z,80.55
2023-02-13T07:10:59.777Z,80.55
2023-02-13T07:11:59.139Z,80.64
2023-02-13T07:13:08.064Z,80.07
2023-02-13T07:13:58.835Z,80.07
2023-02-13T07:14:59.076Z,79.88
2023-02-13T07:15:59.149Z,79.88
2023-02-13T07:16:59.041Z,79.88
2023-02-13T07:17:59.071Z,80.02
2023-02-13T07:18:58.738Z,79.88
2023-02-13T07:19:58.744Z,79.74
2023-02-13T07:20:59.728Z,79.41
2023-02-13T07:21:58.940Z,79.55
2023-02-13T07:22:58.668Z,79.36
2023-02-13T07:23:58.653Z,79.64
2023-02-13T07:24:58.922Z,79.55
2023-02-13T07:25:58.617Z,79.45
2023-02-13T07:26:58.606Z,79.45
2023-02-13T07:27:58.840Z,79.74
2023-02-13T07:29:12.640Z,79.17
2023-02-13T07:29:58.544Z,79.36
2023-02-13T07:30:59.663Z,79.17
2023-02-13T07:31:58.914Z,78.98
2023-02-13T07:32:58.751Z,78.5
2023-02-13T07:33:58.797Z,78.79
2023-02-13T07:35:04.757Z,78.79
2023-02-13T07:35:58.440Z,78.98
2023-02-13T07:36:59.425Z,78.79
2023-02-13T07:37:59.405Z,78.69
2023-02-13T07:39:00.124Z,78.69
2023-02-13T07:40:00.120Z,78.31
2023-02-13T07:41:00.714Z,78.31
2023-02-13T07:42:00.286Z,78.41
2023-02-13T07:43:00.033Z,78.41
2023-02-13T07:44:00.006Z,78.13
2023-02-13T07:45:00.240Z,77.88
2023-02-13T07:46:00.643Z,78.16
2023-02-13T07:47:00.354Z,77.97
2023-02-13T07:48:00.215Z,77.78
2023-02-13T07:49:00.216Z,77.88
2023-02-13T07:50:00.219Z,78.07
2023-02-13T07:51:00.213Z,77.97
2023-02-13T07:52:00.122Z,77.5
2023-02-13T07:53:00.133Z,77.4
2023-02-13T07:54:00.240Z,77.22
2023-02-13T07:54:59.821Z,77.22
2023-02-13T07:56:00.605Z,77.22
2023-02-13T07:57:00.053Z,77.31
2023-02-13T07:58:00.041Z,76.97
2023-02-13T07:58:59.998Z,77.45
2023-02-13T08:00:00.011Z,77.16
2023-02-13T08:00:59.989Z,77.31
2023-02-13T08:02:00.367Z,77.12
2023-02-13T08:03:00.215Z,78.11
2023-02-13T08:04:00.258Z,77.88
2023-02-13T08:05:00.224Z,77.78
2023-02-13T08:06:00.578Z,79.02
2023-02-13T08:07:00.136Z,79.68
2023-02-13T08:08:00.136Z,80.82
2023-02-13T08:08:59.852Z,81.57
2023-02-13T08:09:59.847Z,82.43
2023-02-13T08:11:00.089Z,83.28
2023-02-13T08:11:59.802Z,83.66
2023-02-13T08:12:59.777Z,84.89
2023-02-13T08:13:59.778Z,85.55
2023-02-13T08:15:00.003Z,85.7
2023-02-13T08:16:00.157Z,86.27
2023-02-13T08:16:59.980Z,87.12
2023-02-13T08:17:59.708Z,86.83
2023-02-13T08:18:59.685Z,87.12
2023-02-13T08:19:59.683Z,87.02
2023-02-13T08:20:59.917Z,87.4
2023-02-13T08:22:00.020Z,86.74
2023-02-13T08:22:59.901Z,86.46
2023-02-13T08:23:59.838Z,85.7
2023-02-13T08:25:00.198Z,85.42
2023-02-13T08:26:00.719Z,85.13
2023-02-13T08:27:00.146Z,84.85
2023-02-13T08:28:00.213Z,85.7
2023-02-13T08:29:00.105Z,85.04
2023-02-13T08:30:00.110Z,84.85
2023-02-13T08:31:00.205Z,84.47
2023-02-13T08:32:00.348Z,84.66
2023-02-13T08:33:00.049Z,84.75
2023-02-13T08:34:00.026Z,85.32
2023-02-13T08:34:59.738Z,84.47
2023-02-13T08:36:00.616Z,84.94
2023-02-13T08:36:59.994Z,84.85
2023-02-13T08:37:59.984Z,84.94
2023-02-13T08:38:59.933Z,84.94
2023-02-13T08:39:59.909Z,84.85
2023-02-13T08:41:00.256Z,84.56
2023-02-13T08:41:59.904Z,84
2023-02-13T08:43:00.221Z,83.52
2023-02-13T08:43:59.844Z,83.43
2023-02-13T08:45:00.964Z,83.24
2023-02-13T08:46:00.584Z,82.48
2023-02-13T08:46:59.541Z,81.06
2023-02-13T08:47:59.845Z,80.96
2023-02-13T08:48:59.764Z,81.06
2023-02-13T08:49:59.740Z,80.96
2023-02-13T08:50:59.716Z,80.58
2023-02-13T08:51:59.463Z,80.58
2023-02-13T08:52:59.715Z,80.58
2023-02-13T08:53:59.748Z,80.87
2023-02-13T08:54:59.657Z,80.21
2023-02-13T08:56:00.580Z,79.87
2023-02-13T08:57:00.798Z,79.45
2023-02-13T08:57:59.596Z,79.21
2023-02-13T08:58:59.340Z,78.92
2023-02-13T08:59:59.568Z,79.39
2023-02-13T09:00:59.726Z,79.21
2023-02-13T09:01:59.561Z,79.39
2023-02-13T09:02:59.649Z,79.3
2023-02-13T09:03:59.529Z,79.3
2023-02-13T09:04:59.234Z,79.02
2023-02-13T09:05:59.962Z,79.11
2023-02-13T09:06:59.194Z,78.92
2023-02-13T09:07:59.223Z,79.02
2023-02-13T09:08:59.438Z,78.54
2023-02-13T09:09:59.163Z,79.02
2023-02-13T09:10:59.395Z,78.45
2023-02-13T09:11:59.512Z,77.78
2023-02-13T09:12:59.372Z,78.07
2023-02-13T09:13:59.070Z,78.35
2023-02-13T09:14:59.063Z,78.26
2023-02-13T09:16:00.044Z,78.16
2023-02-13T09:16:59.169Z,77.64
2023-02-13T09:17:59.301Z,77.83
2023-02-13T09:18:59.246Z,77.73
2023-02-13T09:19:59.223Z,77.83
2023-02-13T09:20:59.207Z,78.02
2023-02-13T09:21:58.972Z,78.11
2023-02-13T09:22:58.932Z,78.11
2023-02-13T09:23:59.154Z,77.83
2023-02-13T09:24:59.190Z,77.92
2023-02-13T09:25:59.837Z,78.11
2023-02-13T09:26:59.432Z,77.92
2023-02-13T09:27:59.095Z,78.11
2023-02-13T09:28:58.840Z,77.73
2023-02-13T09:29:59.065Z,77.83
2023-02-13T09:30:59.206Z,78.02
2023-02-13T09:31:59.373Z,78.39
2023-02-13T09:32:59.007Z,77.92
2023-02-13T09:33:58.754Z,78.58
2023-02-13T09:34:58.977Z,78.87
2023-02-13T09:35:59.616Z,79.53
2023-02-13T09:36:58.943Z,79.82
2023-02-13T09:37:58.732Z,80.38
2023-02-13T09:38:58.908Z,81.09
2023-02-13T09:39:58.895Z,81.71
2023-02-13T09:40:58.949Z,82.51
2023-02-13T09:41:58.887Z,83.89
2023-02-13T09:42:58.842Z,84.78
2023-02-13T09:43:58.571Z,85.74
2023-02-13T09:44:58.806Z,86.55
2023-02-13T09:45:59.925Z,87.25
2023-02-13T09:46:58.780Z,88.39
2023-02-13T09:47:58.752Z,88.96
2023-02-13T09:48:58.742Z,89.53
2023-02-13T09:49:58.720Z,90
2023-02-13T09:50:58.705Z,91.14
2023-02-13T09:51:58.705Z,91.71
2023-02-13T09:52:58.429Z,92.94
2023-02-13T09:53:58.650Z,93.8
2023-02-13T09:54:58.635Z,94.18
2023-02-13T09:55:59.163Z,95.03
2023-02-13T09:56:58.631Z,96.64
2023-02-13T09:57:58.621Z,98.25
2023-02-13T09:58:58.313Z,99.11
2023-02-13T09:59:58.302Z,99.99
2023-02-13T10:00:58.536Z,99.99
2023-02-13T10:01:58.374Z,99.99
2023-02-13T10:02:58.513Z,99.99
2023-02-13T10:03:58.495Z,99.99
2023-02-13T10:04:58.632Z,99.99
2023-02-13T10:05:59.121Z,99.99
2023-02-13T10:06:58.456Z,99.99
2023-02-13T10:07:58.181Z,99.99
2023-02-13T10:08:58.416Z,99.99
2023-02-13T10:09:58.141Z,99.99
2023-02-13T10:10:58.656Z,99.99
2023-02-13T10:11:58.362Z,99.99
2023-02-13T10:12:58.486Z,99.99
2023-02-13T10:13:58.378Z,99.99
2023-02-13T10:14:58.055Z,99.99
2023-02-13T10:15:59.274Z,99.99
2023-02-13T10:16:58.275Z,99.99
2023-02-13T10:17:58.003Z,99.99
2023-02-13T10:18:57.990Z,99.99
2023-02-13T10:19:58.234Z,99.99
2023-02-13T10:20:57.961Z,99.99
2023-02-13T10:21:57.944Z,99.99
2023-02-13T10:22:58.169Z,99.99
2023-02-13T10:23:58.165Z,99.99
2023-02-13T10:24:58.139Z,99.99
2023-02-13T10:25:58.477Z,99.99
2023-02-13T10:26:57.858Z,99.99
2023-02-13T10:27:57.846Z,99.99
2023-02-13T10:28:58.103Z,99.99
2023-02-13T10:29:58.096Z,99.99
2023-02-13T10:30:58.440Z,99.99
2023-02-13T10:31:58.400Z,99.99
2023-02-13T10:32:58.017Z,99.99
2023-02-13T10:33:58.007Z,99.99
2023-02-13T10:34:57.983Z,99.99
2023-02-13T10:35:58.868Z,99.99
2023-02-13T10:36:59.232Z,99.99
2023-02-13T10:37:59.145Z,99.99
2023-02-13T10:38:59.127Z,99.99
2023-02-13T10:39:58.849Z,99.99
2023-02-13T10:40:59.207Z,99.99
2023-02-13T10:41:58.805Z,99.99
2023-02-13T10:42:58.819Z,99.99
2023-02-13T10:43:59.104Z,99.99
2023-02-13T10:44:59.106Z,99.99
2023-02-13T10:45:59.546Z,99.99
2023-02-13T10:46:59.125Z,99.99
2023-02-13T10:47:59.150Z,99.99
2023-02-13T10:48:58.964Z,99.99
2023-02-13T10:49:58.944Z,99.99
2023-02-13T10:50:58.924Z,99.99
2023-02-13T10:51:58.905Z,99.99
2023-02-13T10:52:58.904Z,99.99
2023-02-13T10:53:58.869Z,99.99
2023-02-13T10:55:00.034Z,99.99
2023-02-13T10:55:59.810Z,99.99
2023-02-13T10:56:58.834Z,99.99
2023-02-13T10:57:58.824Z,99.99
2023-02-13T10:58:58.817Z,99.99
2023-02-13T10:59:58.795Z,99.99
2023-02-13T11:00:58.874Z,99.99
2023-02-13T11:01:58.686Z,99.99
2023-02-13T11:02:58.471Z,99.99
2023-02-13T11:03:58.927Z,99.99
2023-02-13T11:04:58.442Z,99.99
2023-02-13T11:05:59.624Z,99.99
2023-02-13T11:06:58.673Z,99.99
2023-02-13T11:07:58.407Z,99.99
2023-02-13T11:08:58.635Z,99.99
2023-02-13T11:09:58.634Z,99.99
2023-02-13T11:10:58.365Z,99.99
2023-02-13T11:11:58.593Z,99.99
2023-02-13T11:12:58.346Z,99.99
2023-02-13T11:13:58.302Z,99.99
2023-02-13T11:14:58.559Z,99.99
2023-02-13T11:15:59.082Z,99.99
2023-02-13T11:16:58.550Z,99.99
2023-02-13T11:17:58.539Z,99.99
2023-02-13T11:18:58.484Z,99.99
2023-02-13T11:19:58.468Z,99.99
2023-02-13T11:20:58.460Z,99.99
2023-02-13T11:21:58.448Z,99.99
2023-02-13T11:22:58.456Z,99.99
2023-02-13T11:23:58.400Z,99.99
2023-02-13T11:24:58.414Z,99.99
2023-02-13T11:25:59.240Z,99.99
2023-02-13T11:26:58.377Z,99.99
2023-02-13T11:27:58.095Z,99.99
2023-02-13T11:28:58.361Z,99.99
2023-02-13T11:29:58.070Z,99.99
2023-02-13T11:30:58.476Z,99.99
2023-02-13T11:31:58.629Z,99.99
2023-02-13T11:32:58.328Z,99.99
2023-02-13T11:34:01.275Z,99.99
2023-02-13T11:34:58.243Z,99.99
2023-02-13T11:35:58.896Z,99.99
2023-02-13T11:36:57.965Z,99.99
2023-02-13T11:37:58.208Z,99.99
2023-02-13T11:38:57.928Z,99.99
2023-02-13T11:39:58.196Z,99.99
2023-02-13T11:40:57.900Z,99.99
2023-02-13T11:41:57.887Z,99.99
2023-02-13T11:42:58.122Z,99.99
2023-02-13T11:43:58.125Z,99.99
2023-02-13T11:44:58.113Z,99.99
2023-02-13T11:45:58.318Z,99.99
2023-02-13T11:46:58.237Z,99.99
2023-02-13T11:47:58.067Z,99.99
2023-02-13T11:48:58.066Z,99.99
2023-02-13T11:49:58.064Z,99.99
2023-02-13T11:50:58.007Z,99.99
2023-02-13T11:51:57.992Z,99.99
2023-02-13T11:52:57.740Z,99.99
2023-02-13T11:53:57.711Z,99.99
2023-02-13T11:54:57.967Z,99.99
2023-02-13T11:55:59.014Z,99.99
2023-02-13T11:57:13.266Z,99.99
2023-02-13T11:57:58.583Z,99.99
2023-02-13T11:58:58.741Z,99.99
2023-02-13T11:59:58.570Z,99.99
2023-02-13T12:00:58.539Z,99.99
2023-02-13T12:01:58.523Z,99.99
2023-02-13T12:02:58.795Z,99.99
2023-02-13T12:03:58.641Z,99.99
2023-02-13T12:04:58.514Z,99.99
2023-02-13T12:05:59.529Z,99.99
2023-02-13T12:06:58.499Z,99.99
2023-02-13T12:07:58.448Z,99.99
2023-02-13T12:08:58.195Z,99.99
2023-02-13T12:09:58.182Z,99.99
2023-02-13T12:10:58.414Z,99.99
2023-02-13T12:11:58.398Z,99.99
2023-02-13T12:12:58.385Z,99.99
2023-02-13T12:13:58.356Z,99.99
2023-02-13T12:14:58.342Z,99.99
2023-02-13T12:15:59.427Z,99.99
2023-02-13T12:16:58.229Z,99.99
2023-02-13T12:17:58.060Z,99.99
2023-02-13T12:18:58.080Z,99.99
2023-02-13T12:19:58.290Z,99.99
2023-02-13T12:20:59.176Z,99.99
2023-02-13T12:21:58.304Z,99.99
2023-02-13T12:22:58.266Z,99.99
2023-02-13T12:23:57.963Z,99.99
2023-02-13T12:24:58.213Z,99.99
2023-02-13T12:25:58.590Z,99.99
2023-02-13T12:26:58.181Z,99.99
2023-02-13T12:27:58.159Z,99.99
2023-02-13T12:28:58.202Z,99.99
2023-02-13T12:29:58.131Z,99.99
2023-02-13T12:31:00.099Z,99.99
2023-02-13T12:31:59.172Z,99.99
2023-02-13T12:32:58.706Z,99.99
2023-02-13T12:33:58.972Z,99.99
2023-02-13T12:34:58.961Z,99.99
2023-02-13T12:35:58.774Z,99.99
2023-02-13T12:36:59.079Z,99.99
2023-02-13T12:37:58.957Z,99.99
2023-02-13T12:38:58.886Z,99.99
2023-02-13T12:39:58.856Z,99.99
2023-02-13T12:40:59.232Z,99.99
2023-02-13T12:41:58.826Z,99.99
2023-02-13T12:42:58.836Z,99.99
2023-02-13T12:43:58.802Z,99.99
2023-02-13T12:44:58.792Z,99.99
2023-02-13T12:45:58.844Z,99.99
2023-02-13T12:46:58.771Z,99.99
2023-02-13T12:47:58.740Z,99.99
2023-02-13T12:48:58.744Z,99.99
2023-02-13T12:49:58.714Z,99.99
2023-02-13T12:50:59.265Z,99.99
2023-02-13T12:51:58.694Z,99.99
2023-02-13T12:52:58.746Z,99.99
2023-02-13T12:53:58.442Z,99.99
2023-02-13T12:54:58.648Z,99.99
2023-02-13T12:55:58.461Z,99.99
2023-02-13T12:56:58.625Z,99.99
2023-02-13T12:57:58.606Z,99.99
2023-02-13T12:58:58.595Z,99.99
2023-02-13T12:59:58.573Z,99.99
2023-02-13T13:00:59.388Z,99.99
2023-02-13T13:01:58.361Z,99.99
2023-02-13T13:02:58.556Z,99.99
2023-02-13T13:03:58.537Z,99.99
2023-02-13T13:04:58.700Z,99.99
2023-02-13T13:06:12.492Z,99.99
2023-02-13T13:06:58.930Z,99.99
2023-02-13T13:07:58.908Z,99.99
2023-02-13T13:08:58.928Z,99.99
2023-02-13T13:09:58.660Z,99.99
2023-02-13T13:10:59.593Z,99.99
2023-02-13T13:11:58.860Z,99.99